Time;durP1;ratioP1;P1;durP2;ratioP2;P2;SDS_P1;SDS_P2;PMS_P1;PMS_P2;Temp;Humidity;BMP_temperature;BMP_pressure;BME280_temperature;BME280_humidity;BME280_pressure;Samples;Min_cycle;Max_cycle;Signal;HPM_P1;HPM_P2
2022/02/12 00:00:08;;;;;;;;;;;;;;;14.30;51.15;102344.50;4933350;28;98223;-57
2022/02/12 00:02:34;;;;;;;;;;;;;;;14.27;51.27;102342.31;4943234;28;104885;-57
2022/02/12 00:05:00;;;;;;;;;;;;;;;14.25;51.19;102354.19;4932366;28;119305;-56
2022/02/12 00:07:26;;;;;;;;;;;;;;;14.23;50.97;102353.66;4923780;28;99073;-57
2022/02/12 00:09:52;;;;;;;;;;;;;;;14.22;50.92;102365.53;4922195;28;128968;-56
2022/02/12 00:12:18;;;;;;;;;;;;;;;14.20;50.76;102366.88;4954433;28;107545;-57
2022/02/12 00:14:44;;;;;;;;;;;;;;;14.18;50.91;102369.00;4922252;28;127765;-63
2022/02/12 00:17:10;;;;;;;;;;;;;;;14.16;51.05;102374.69;4926530;28;126102;-56
2022/02/12 00:19:36;;;;;;;;;;;;;;;14.16;51.03;102379.28;4922539;28;127443;-63
2022/02/12 00:22:02;;;;;;;;;;;;;;;14.14;50.85;102379.50;4921858;28;116942;-63
2022/02/12 00:24:28;;;;;;;;;;;;;;;14.13;50.68;102382.47;4932318;28;98963;-63
2022/02/12 00:26:54;;;;;;;;;;;;;;;14.11;50.83;102392.72;4942144;28;127901;-63
2022/02/12 00:29:20;;;;;;;;;;;;;;;14.09;51.17;102390.28;4942733;28;98130;-63
2022/02/12 00:31:46;;;;;;;;;;;;;;;14.07;50.87;102397.00;4941656;28;118204;-63
2022/02/12 00:34:12;;;;;;;;;;;;;;;14.06;50.87;102403.50;4941265;28;128096;-56
2022/02/12 00:36:37;;;;;;;;;;;;;;;14.05;50.61;102407.28;4939175;28;128952;-57
2022/02/12 00:39:06;;;;;;;;;;;;;;;14.02;50.71;102419.44;4942921;28;98362;-57
2022/02/12 00:41:32;;;;;;;;;;;;;;;14.00;50.82;102422.38;4942754;28;97875;-56
2022/02/12 00:43:58;;;;;;;;;;;;;;;13.99;50.52;102419.94;4941040;28;126804;-63
2022/02/12 00:46:24;;;;;;;;;;;;;;;13.98;50.57;102418.25;4940811;28;128968;-57
2022/02/12 00:48:50;;;;;;;;;;;;;;;13.96;50.54;102425.84;4940647;28;106449;-56
2022/02/12 00:51:16;;;;;;;;;;;;;;;13.93;50.71;102421.72;4940876;28;107177;-56
2022/02/12 00:53:42;;;;;;;;;;;;;;;13.92;50.65;102421.97;4921933;28;127676;-56
2022/02/12 00:56:08;;;;;;;;;;;;;;;13.90;50.65;102424.91;4939730;28;128523;-63
2022/02/12 00:58:34;;;;;;;;;;;;;;;13.89;50.60;102422.44;4942216;28;127632;-63
2022/02/12 01:01:00;;;;;;;;;;;;;;;13.86;50.46;102423.75;4941248;28;116218;-63
2022/02/12 01:03:26;;;;;;;;;;;;;;;13.85;50.61;102424.00;4941830;28;130403;-63
2022/02/12 01:05:52;;;;;;;;;;;;;;;13.84;50.52;102417.75;4941014;28;99108;-63
2022/02/12 01:08:18;;;;;;;;;;;;;;;13.83;50.49;102417.97;4941868;28;126925;-57
2022/02/12 01:10:43;;;;;;;;;;;;;;;13.81;50.65;102417.41;4941174;28;117678;-56
2022/02/12 01:13:09;;;;;;;;;;;;;;;13.80;50.28;102421.19;4941771;28;127836;-57
2022/02/12 01:15:35;;;;;;;;;;;;;;;13.78;50.59;102426.84;4941313;28;99122;-63
2022/02/12 01:18:02;;;;;;;;;;;;;;;13.75;50.58;102422.75;4935886;28;128159;-56
2022/02/12 01:20:28;;;;;;;;;;;;;;;13.75;50.46;102430.03;4921808;28;112109;-63
2022/02/12 01:22:53;;;;;;;;;;;;;;;13.74;50.42;102433.81;4921860;28;129043;-56
2022/02/12 01:25:20;;;;;;;;;;;;;;;13.72;50.61;102427.81;4921810;28;113740;-63
2022/02/12 01:27:45;;;;;;;;;;;;;;;13.71;50.32;102439.69;4922083;28;127646;-56
2022/02/12 01:30:12;;;;;;;;;;;;;;;13.69;50.44;102429.13;4922454;28;107369;-56
2022/02/12 01:32:38;;;;;;;;;;;;;;;13.68;50.53;102432.91;4921594;28;118704;-56
2022/02/12 01:35:04;;;;;;;;;;;;;;;13.67;50.53;102431.22;4923072;28;116327;-63
2022/02/12 01:37:30;;;;;;;;;;;;;;;13.65;50.16;102438.78;4941647;28;98259;-56
2022/02/12 01:39:56;;;;;;;;;;;;;;;13.64;50.15;102439.03;4941779;28;98579;-63
2022/02/12 01:42:21;;;;;;;;;;;;;;;13.62;50.35;102443.88;4941094;28;126944;-56
2022/02/12 01:44:49;;;;;;;;;;;;;;;13.61;50.25;102439.50;4931995;28;118794;-60
2022/02/12 01:47:15;;;;;;;;;;;;;;;13.60;50.30;102446.00;4938331;28;120022;-63
2022/02/12 01:49:41;;;;;;;;;;;;;;;13.58;50.08;102453.53;4941624;28;117807;-64
2022/02/12 01:52:09;;;;;;;;;;;;;;;13.57;49.99;102449.19;4942113;28;99071;-63
2022/02/12 01:54:35;;;;;;;;;;;;;;;13.56;50.05;102452.94;4941397;28;99105;-56
2022/02/12 01:57:02;;;;;;;;;;;;;;;13.53;50.20;102453.44;4938569;28;119278;-63
2022/02/12 01:59:28;;;;;;;;;;;;;;;13.53;50.20;102450.72;4939953;28;97902;-56
2022/02/12 02:01:55;;;;;;;;;;;;;;;13.51;50.26;102448.25;4903342;28;103675;-56
2022/02/12 02:04:21;;;;;;;;;;;;;;;13.49;50.19;102453.91;4929496;28;122209;-63
2022/02/12 02:06:49;;;;;;;;;;;;;;;13.48;49.88;102449.56;4918815;28;122065;-56
2022/02/12 02:09:16;;;;;;;;;;;;;;;13.47;50.07;102452.50;4922948;28;97867;-62
2022/02/12 02:11:42;;;;;;;;;;;;;;;13.45;49.86;102451.91;4924494;28;120142;-63
2022/02/12 02:14:08;;;;;;;;;;;;;;;13.44;49.81;102455.66;4921934;28;98579;-63
2022/02/12 02:16:34;;;;;;;;;;;;;;;13.43;49.92;102459.44;4932170;28;119308;-63
2022/02/12 02:19:00;;;;;;;;;;;;;;;13.42;49.86;102460.50;4940688;28;115267;-62
2022/02/12 02:21:26;;;;;;;;;;;;;;;13.39;49.73;102464.50;4938005;28;128855;-56
2022/02/12 02:23:52;;;;;;;;;;;;;;;13.39;50.04;102459.09;4970794;28;128326;-63
2022/02/12 02:26:19;;;;;;;;;;;;;;;13.38;49.87;102464.75;4953069;28;127895;-63
2022/02/12 02:28:46;;;;;;;;;;;;;;;13.36;49.99;102456.03;4941962;28;97683;-56
2022/02/12 02:31:12;;;;;;;;;;;;;;;13.35;50.08;102463.34;4940812;28;98212;-63
2022/02/12 02:33:38;;;;;;;;;;;;;;;13.34;49.84;102469.00;4944988;28;127914;-62
2022/02/12 02:36:04;;;;;;;;;;;;;;;13.32;49.95;102461.09;4937840;28;127285;-62
2022/02/12 02:38:31;;;;;;;;;;;;;;;13.31;49.71;102469.47;4941453;28;114687;-62
2022/02/12 02:40:57;;;;;;;;;;;;;;;13.30;50.06;102454.28;4940268;28;98671;-57
2022/02/12 02:43:23;;;;;;;;;;;;;;;13.27;49.91;102464.53;4940714;28;98389;-57
2022/02/12 02:45:49;;;;;;;;;;;;;;;13.28;49.96;102465.34;4929364;28;120937;-56
2022/02/12 02:48:15;;;;;;;;;;;;;;;13.27;49.74;102458.28;4934521;28;97796;-56
2022/02/12 02:56:12;;;;;;;;;;;;;;;13.22;49.69;102461.69;4892291;28;97874;-59
2022/02/12 02:58:46;;;;;;;;;;;;;;;13.21;49.90;102461.94;4904081;28;97719;-62
2022/02/12 03:01:22;;;;;;;;;;;;;;;13.19;49.80;102462.16;4918925;28;99075;-57
2022/02/12 03:03:52;;;;;;;;;;;;;;;13.19;49.71;102466.75;4905829;28;97784;-63
2022/02/12 03:06:19;;;;;;;;;;;;;;;13.18;49.79;102465.09;4923875;28;98301;-57
2022/02/12 03:08:45;;;;;;;;;;;;;;;13.16;49.63;102470.75;4925075;28;97768;-63
2022/02/12 03:11:12;;;;;;;;;;;;;;;13.15;49.46;102462.88;4924123;28;98220;-56
2022/02/12 03:13:38;;;;;;;;;;;;;;;13.15;49.66;102471.00;4924651;28;105941;-63
2022/02/12 03:16:04;;;;;;;;;;;;;;;13.14;49.60;102469.34;4924209;28;98085;-63
2022/02/12 03:18:30;;;;;;;;;;;;;;;13.12;49.58;102468.75;4924413;28;105531;-63
2022/02/12 03:20:56;;;;;;;;;;;;;;;13.12;49.51;102472.28;4923000;28;128774;-56
2022/02/12 03:23:22;;;;;;;;;;;;;;;13.11;49.38;102475.22;4925138;28;120523;-63
2022/02/12 03:25:48;;;;;;;;;;;;;;;13.09;49.65;102472.78;4922366;28;128773;-62
2022/02/12 03:28:14;;;;;;;;;;;;;;;13.08;49.50;102471.09;4924700;28;104678;-63
2022/02/12 03:30:41;;;;;;;;;;;;;;;13.07;49.47;102466.75;4923324;28;127477;-56
2022/02/12 03:33:08;;;;;;;;;;;;;;;13.06;49.44;102469.69;4924889;28;98553;-57
2022/02/12 03:35:34;;;;;;;;;;;;;;;13.04;49.20;102464.50;4922807;28;114103;-62
2022/02/12 03:38:12;;;;;;;;;;;;;;;13.03;49.46;102466.41;4923351;28;109467;-62
2022/02/12 03:40:42;;;;;;;;;;;;;;;13.03;49.46;102471.00;4938354;28;98701;-63
2022/02/12 03:43:08;;;;;;;;;;;;;;;13.02;49.45;102469.34;4953314;28;99028;-63
2022/02/12 03:45:34;;;;;;;;;;;;;;;12.99;49.34;102467.94;4942005;28;128615;-63
2022/02/12 03:48:00;;;;;;;;;;;;;;;12.98;49.42;102462.75;4943114;28;115427;-56
2022/02/12 03:50:31;;;;;;;;;;;;;;;12.97;49.53;102461.13;4929567;28;104269;-56
2022/02/12 03:52:57;;;;;;;;;;;;;;;12.96;49.21;102462.16;4924192;28;98606;-56
2022/02/12 03:55:23;;;;;;;;;;;;;;;12.95;49.55;102465.94;4934588;28;107048;-57
2022/02/12 03:57:49;;;;;;;;;;;;;;;12.94;49.30;102462.41;4943987;28;110507;-57
2022/02/12 04:00:15;;;;;;;;;;;;;;;12.94;49.13;102461.59;4930538;28;127957;-56
2022/02/12 04:02:42;;;;;;;;;;;;;;;12.92;49.23;102467.22;4923600;28;98931;-63
2022/02/12 04:05:10;;;;;;;;;;;;;;;12.90;49.27;102446.88;4921973;28;118234;-63
2022/02/12 04:07:42;;;;;;;;;;;;;;;12.90;49.23;102455.81;4923733;28;98180;-56
2022/02/12 04:10:08;;;;;;;;;;;;;;;12.90;49.22;102449.56;4922571;28;98586;-56
2022/02/12 04:12:35;;;;;;;;;;;;;;;12.89;49.28;102456.03;4936210;28;119436;-56
2022/02/12 04:15:01;;;;;;;;;;;;;;;12.87;49.36;102453.56;4943294;28;98538;-56
2022/02/12 04:17:27;;;;;;;;;;;;;;;12.86;49.19;102460.03;4940376;28;117520;-56
2022/02/12 04:19:53;;;;;;;;;;;;;;;12.85;49.23;102461.13;4942709;28;128028;-56
2022/02/12 04:22:19;;;;;;;;;;;;;;;12.83;49.12;102454.28;4942060;28;107960;-56
2022/02/12 04:24:45;;;;;;;;;;;;;;;12.81;49.18;102462.63;4942859;28;98321;-56
2022/02/12 04:27:11;;;;;;;;;;;;;;;12.80;49.16;102462.84;4941476;28;117187;-55
2022/02/12 04:29:38;;;;;;;;;;;;;;;12.80;49.24;102462.84;4941896;28;127476;-63
2022/02/12 04:32:04;;;;;;;;;;;;;;;12.78;49.06;102463.91;4942913;28;98689;-63
2022/02/12 04:34:30;;;;;;;;;;;;;;;12.77;49.10;102467.69;4940626;28;120605;-57
2022/02/12 04:36:56;;;;;;;;;;;;;;;12.75;49.08;102468.97;4941201;28;117796;-56
2022/02/12 04:39:22;;;;;;;;;;;;;;;12.74;49.15;102467.34;4925501;28;123779;-56
2022/02/12 04:41:48;;;;;;;;;;;;;;;12.74;49.02;102467.34;4923337;28;98677;-56
2022/02/12 04:44:14;;;;;;;;;;;;;;;12.72;49.14;102467.53;4922905;28;127046;-63
2022/02/12 04:46:40;;;;;;;;;;;;;;;12.71;48.97;102468.63;4941880;28;115271;-63
2022/02/12 04:49:06;;;;;;;;;;;;;;;12.72;49.11;102472.13;4941061;28;128146;-56
2022/02/12 04:51:32;;;;;;;;;;;;;;;12.70;49.05;102466.16;4942840;28;98709;-63
2022/02/12 04:53:59;;;;;;;;;;;;;;;12.69;49.01;102462.63;4942364;28;115590;-56
2022/02/12 04:56:25;;;;;;;;;;;;;;;12.68;48.99;102463.66;4942150;28;98162;-63
2022/02/12 04:58:51;;;;;;;;;;;;;;;12.67;49.08;102458.50;4942982;28;98841;-63
2022/02/12 05:01:20;;;;;;;;;;;;;;;12.67;49.05;102456.59;4940271;28;123301;-56
2022/02/12 05:03:48;;;;;;;;;;;;;;;12.65;48.90;102457.88;4942693;28;98300;-56
2022/02/12 05:06:14;;;;;;;;;;;;;;;12.62;48.81;102451.09;4917688;28;98785;-63
2022/02/12 05:08:40;;;;;;;;;;;;;;;12.63;49.03;102451.91;4923509;28;98436;-63
2022/02/12 05:11:06;;;;;;;;;;;;;;;12.62;49.06;102455.69;4922028;28;128267;-62
2022/02/12 05:13:32;;;;;;;;;;;;;;;12.61;49.00;102454.00;4933747;28;98098;-63
2022/02/12 05:15:58;;;;;;;;;;;;;;;12.59;48.97;102440.72;4938443;28;117561;-57
2022/02/12 05:18:24;;;;;;;;;;;;;;;12.59;49.08;102438.00;4941258;28;127735;-63
2022/02/12 05:20:50;;;;;;;;;;;;;;;12.58;48.79;102435.56;4924381;28;128609;-56
2022/02/12 05:23:16;;;;;;;;;;;;;;;12.57;48.90;102434.69;4921250;28;127647;-62
2022/02/12 05:25:42;;;;;;;;;;;;;;;12.56;48.99;102435.78;4921392;28;117260;-56
2022/02/12 05:28:07;;;;;;;;;;;;;;;12.55;48.94;102434.13;4923677;28;128846;-63
2022/02/12 05:30:33;;;;;;;;;;;;;;;12.53;48.93;102442.47;4935019;28;127548;-62
2022/02/12 05:33:00;;;;;;;;;;;;;;;12.53;48.78;102439.75;4943231;28;98013;-56
2022/02/12 05:35:26;;;;;;;;;;;;;;;12.52;48.86;102440.00;4937132;28;116772;-56
2022/02/12 05:37:52;;;;;;;;;;;;;;;12.50;48.80;102437.53;4922115;28;99202;-62
2022/02/12 05:40:18;;;;;;;;;;;;;;;12.51;48.76;102431.06;4927046;28;113825;-56
2022/02/12 05:42:44;;;;;;;;;;;;;;;12.50;48.78;102431.31;4940405;28;120998;-57
2022/02/12 05:45:09;;;;;;;;;;;;;;;12.49;48.80;102437.75;4972658;28;98110;-56
2022/02/12 05:47:41;;;;;;;;;;;;;;;12.48;48.76;102438.81;4939938;28;127642;-57
2022/02/12 05:50:08;;;;;;;;;;;;;;;12.46;48.91;102430.13;4939155;28;98883;-57
2022/02/12 05:52:34;;;;;;;;;;;;;;;12.46;48.76;102436.34;4937989;28;121295;-56
2022/02/12 05:55:00;;;;;;;;;;;;;;;12.44;48.67;102443.03;4919461;28;98539;-56
2022/02/12 05:57:26;;;;;;;;;;;;;;;12.42;48.96;102450.56;4920317;28;128634;-56
2022/02/12 05:59:52;;;;;;;;;;;;;;;12.42;48.86;102446.00;4939501;28;107704;-56
2022/02/12 06:02:18;;;;;;;;;;;;;;;12.41;48.73;102448.91;4940326;28;125810;-56
2022/02/12 06:04:43;;;;;;;;;;;;;;;12.39;48.74;102445.63;4939847;28;118100;-56
2022/02/12 06:07:10;;;;;;;;;;;;;;;12.40;48.65;102460.78;4936667;28;128354;-56
2022/02/12 06:09:36;;;;;;;;;;;;;;;12.39;48.72;102456.44;4939614;28;98280;-56
2022/02/12 06:12:03;;;;;;;;;;;;;;;12.37;48.80;102459.34;4940343;28;120437;-56
2022/02/12 06:14:29;;;;;;;;;;;;;;;12.36;48.61;102473.94;4938131;28;112474;-56
2022/02/12 06:16:57;;;;;;;;;;;;;;;12.35;48.75;102475.00;4938634;28;127218;-56
2022/02/12 06:19:24;;;;;;;;;;;;;;;12.34;48.61;102467.97;4940714;28;98250;-56
2022/02/12 06:21:50;;;;;;;;;;;;;;;12.34;48.61;102467.97;4941137;28;99879;-56
2022/02/12 06:24:16;;;;;;;;;;;;;;;12.33;48.63;102471.69;4940816;28;105608;-56
2022/02/12 06:26:46;;;;;;;;;;;;;;;12.32;48.57;102463.81;4939881;28;98608;-55
2022/02/12 06:29:12;;;;;;;;;;;;;;;12.33;48.52;102468.16;4937150;28;98247;-56
2022/02/12 06:31:38;;;;;;;;;;;;;;;12.34;48.46;102475.22;4923801;28;112953;-56
2022/02/12 06:34:04;;;;;;;;;;;;;;;12.33;48.39;102474.41;4939478;28;97879;-56
2022/02/12 06:36:30;;;;;;;;;;;;;;;12.33;48.56;102474.41;4927322;28;127538;-56
2022/02/12 06:38:56;;;;;;;;;;;;;;;12.33;48.31;102482.50;4920357;28;128142;-56
2022/02/12 06:41:21;;;;;;;;;;;;;;;12.34;48.36;102484.19;4919364;28;117125;-55
2022/02/12 06:43:47;;;;;;;;;;;;;;;12.35;48.23;102483.13;4921270;28;117510;-56
2022/02/12 06:46:14;;;;;;;;;;;;;;;12.36;48.42;102479.34;4928971;28;127019;-56
2022/02/12 06:48:40;;;;;;;;;;;;;;;12.39;48.33;102478.09;4930153;28;99195;-62
2022/02/12 06:51:06;;;;;;;;;;;;;;;12.39;48.31;102487.00;4935456;28;119653;-56
2022/02/12 06:53:33;;;;;;;;;;;;;;;12.40;48.38;102488.66;4938509;28;98164;-56
2022/02/12 06:56:00;;;;;;;;;;;;;;;12.43;48.30;102479.25;4931700;28;98219;-64
2022/02/12 06:58:26;;;;;;;;;;;;;;;12.44;48.13;102480.91;4937981;28;98851;-56
2022/02/12 07:00:52;;;;;;;;;;;;;;;12.44;48.06;102484.44;4935963;28;127189;-63
2022/02/12 07:03:18;;;;;;;;;;;;;;;12.46;48.20;102478.81;4936832;28;117342;-57
2022/02/12 07:05:44;;;;;;;;;;;;;;;12.50;48.20;102482.69;4930283;28;104727;-56
2022/02/12 07:08:10;;;;;;;;;;;;;;;12.51;48.10;102487.88;4933457;28;127142;-63
2022/02/12 07:10:36;;;;;;;;;;;;;;;12.55;48.18;102487.41;4933971;28;97903;-63
2022/02/12 07:13:03;;;;;;;;;;;;;;;12.57;47.97;102490.69;4937055;28;117274;-56
2022/02/12 07:15:28;;;;;;;;;;;;;;;12.61;48.13;102491.88;4928819;28;108629;-56
2022/02/12 07:17:54;;;;;;;;;;;;;;;12.65;48.32;102502.00;4935155;28;128217;-63
2022/02/12 07:20:20;;;;;;;;;;;;;;;12.69;48.20;102492.38;4967713;28;115814;-63
2022/02/12 07:22:46;;;;;;;;;;;;;;;12.74;48.05;102500.63;4937285;28;98645;-63
2022/02/12 07:25:12;;;;;;;;;;;;;;;12.81;48.02;102489.69;4936231;28;99066;-63
2022/02/12 07:27:38;;;;;;;;;;;;;;;12.90;47.95;102493.69;4936324;28;109961;-63
2022/02/12 07:30:09;;;;;;;;;;;;;;;12.97;48.03;102505.25;4930858;28;126999;-63
2022/02/12 07:32:38;;;;;;;;;;;;;;;13.06;47.92;102505.72;4942326;28;98064;-63
2022/02/12 07:35:05;;;;;;;;;;;;;;;13.15;47.92;102490.75;4936664;28;105076;-63
2022/02/12 07:37:32;;;;;;;;;;;;;;;13.25;47.88;102498.34;4934672;28;99164;-63
2022/02/12 07:40:00;;;;;;;;;;;;;;;13.34;47.64;102496.91;4936035;28;98238;-64
2022/02/12 07:42:26;;;;;;;;;;;;;;;13.42;47.73;102493.84;4929682;28;97963;-63
2022/02/12 07:44:52;;;;;;;;;;;;;;;13.54;47.81;102499.25;4935911;28;120303;-63
2022/02/12 07:47:18;;;;;;;;;;;;;;;13.71;47.46;102500.13;4930213;28;129086;-63
2022/02/12 07:49:44;;;;;;;;;;;;;;;14.06;47.05;102490.25;4939306;28;99378;-63
2022/02/12 07:52:10;;;;;;;;;;;;;;;14.56;46.26;102492.28;4940092;28;117555;-63
2022/02/12 07:54:36;;;;;;;;;;;;;;;14.82;45.96;102493.56;4938532;28;103677;-63
2022/02/12 07:57:02;;;;;;;;;;;;;;;14.95;46.20;102485.06;4938531;28;98426;-62
2022/02/12 07:59:28;;;;;;;;;;;;;;;15.04;46.25;102488.19;4938435;28;98144;-63
2022/02/12 08:01:54;;;;;;;;;;;;;;;15.22;46.13;102493.34;4930454;28;98856;-63
2022/02/12 08:04:20;;;;;;;;;;;;;;;15.50;45.80;102497.81;4938584;28;105545;-63
2022/02/12 08:09:33;;;;;;;;;;;;;;;16.23;45.30;102495.72;4935626;28;97874;-56
2022/02/12 08:12:43;;;;;;;;;;;;;;;16.55;45.04;102494.94;4932955;28;97773;-56
2022/02/12 08:14:55;;;;;;;;;;;;;;;16.93;44.88;102491.19;4958086;28;98759;-56
2022/02/12 08:17:23;;;;;;;;;;;;;;;17.37;44.49;102491.75;4939738;28;122785;-63
2022/02/12 08:19:49;;;;;;;;;;;;;;;17.85;44.17;102498.00;4938218;28;124832;-57
2022/02/12 08:22:16;;;;;;;;;;;;;;;18.34;43.73;102500.28;4940466;28;97875;-63
2022/02/12 08:24:42;;;;;;;;;;;;;;;18.77;43.37;102491.88;4931106;28;100333;-63
2022/02/12 08:27:11;;;;;;;;;;;;;;;19.16;43.49;102494.03;4940041;28;98152;-64
2022/02/12 08:29:38;;;;;;;;;;;;;;;19.50;43.25;102497.75;4937650;28;99121;-57
2022/02/12 08:32:05;;;;;;;;;;;;;;;19.86;43.27;102489.44;4939468;28;97985;-57
2022/02/12 08:34:31;;;;;;;;;;;;;;;20.27;42.93;102505.59;4930069;28;98989;-63
2022/02/12 08:36:57;;;;;;;;;;;;;;;20.65;42.90;102497.72;4938364;28;99194;-57
2022/02/12 08:39:23;;;;;;;;;;;;;;;21.04;42.87;102490.22;4937637;28;97992;-64
2022/02/12 08:41:50;;;;;;;;;;;;;;;21.45;42.65;102500.75;4935030;28;118169;-64
2022/02/12 08:44:16;;;;;;;;;;;;;;;21.86;42.59;102494.78;4939092;28;110243;-64
2022/02/12 08:46:43;;;;;;;;;;;;;;;22.26;42.42;102495.34;4932013;28;98679;-57
2022/02/12 08:49:09;;;;;;;;;;;;;;;22.65;42.27;102505.16;4939880;28;98222;-57
2022/02/12 08:51:39;;;;;;;;;;;;;;;23.02;42.39;102499.56;4940019;28;101726;-64
2022/02/12 08:54:09;;;;;;;;;;;;;;;23.42;42.09;102501.84;4933835;28;99041;-64
2022/02/12 08:56:36;;;;;;;;;;;;;;;23.81;42.17;102506.03;4938730;28;98036;-64
2022/02/12 08:59:02;;;;;;;;;;;;;;;24.18;41.84;102503.00;4938087;28;98541;-64
2022/02/12 09:01:28;;;;;;;;;;;;;;;24.54;41.73;102510.44;4939246;28;111091;-64
2022/02/12 09:03:54;;;;;;;;;;;;;;;24.86;41.69;102512.09;4938164;28;99169;-64
2022/02/12 09:06:20;;;;;;;;;;;;;;;25.16;41.86;102510.50;4931269;28;128284;-64
2022/02/12 09:08:51;;;;;;;;;;;;;;;25.49;41.94;102512.09;4938341;28;115530;-64
2022/02/12 09:11:20;;;;;;;;;;;;;;;25.79;41.68;102502.13;4933201;28;99744;-57
2022/02/12 09:13:50;;;;;;;;;;;;;;;26.11;41.46;102500.84;4932417;28;103256;-64
2022/02/12 09:16:17;;;;;;;;;;;;;;;26.40;41.37;102491.91;4939458;28;98959;-64
2022/02/12 09:18:43;;;;;;;;;;;;;;;26.71;41.06;102505.53;4938283;28;97914;-64
2022/02/12 09:21:09;;;;;;;;;;;;;;;26.99;40.86;102497.66;4933264;28;98288;-58
2022/02/12 09:23:34;;;;;;;;;;;;;;;27.24;40.91;102495.97;4937575;28;127992;-58
2022/02/12 09:26:00;;;;;;;;;;;;;;;27.46;40.82;102496.81;4933636;28;128884;-58
2022/02/12 09:28:26;;;;;;;;;;;;;;;27.63;40.40;102493.97;4935647;28;104728;-57
2022/02/12 09:30:52;;;;;;;;;;;;;;;27.81;40.83;102480.84;4921802;28;116570;-64
2022/02/12 09:33:18;;;;;;;;;;;;;;;28.00;40.17;102488.69;4938545;28;97812;-64
2022/02/12 09:35:44;;;;;;;;;;;;;;;28.23;40.16;102489.94;4931794;28;117201;-64
2022/02/12 09:38:10;;;;;;;;;;;;;;;28.53;39.90;102493.47;4938446;28;97912;-64
2022/02/12 09:40:37;;;;;;;;;;;;;;;28.78;39.13;102491.56;4938646;28;97913;-64
2022/02/12 09:43:03;;;;;;;;;;;;;;;28.90;39.16;102493.53;4930640;28;113204;-64
2022/02/12 09:45:32;;;;;;;;;;;;;;;28.73;39.48;102488.16;4937608;28;126887;-58
2022/02/12 09:47:58;;;;;;;;;;;;;;;28.93;39.02;102480.94;4940852;28;123856;-57
2022/02/12 09:50:24;;;;;;;;;;;;;;;28.99;39.18;102483.16;4952572;28;116447;-58
2022/02/12 09:52:55;;;;;;;;;;;;;;;29.18;38.99;102479.03;4937776;28;98593;-58
2022/02/12 09:55:21;;;;;;;;;;;;;;;29.37;38.95;102479.25;4933111;28;98804;-64
2022/02/12 09:57:47;;;;;;;;;;;;;;;29.54;38.96;102473.44;4938571;28;98483;-58
2022/02/12 10:00:17;;;;;;;;;;;;;;;29.77;38.60;102472.97;4938618;28;98013;-64
2022/02/12 10:02:44;;;;;;;;;;;;;;;29.91;38.24;102467.00;4933911;28;98658;-58
2022/02/12 10:05:26;;;;;;;;;;;;;;;29.98;38.47;102470.81;4931075;28;99212;-63
2022/02/12 10:08:07;;;;;;;;;;;;;;;30.26;37.87;102456.97;4913517;28;98308;-58
2022/02/12 10:10:35;;;;;;;;;;;;;;;30.56;37.29;102451.81;4960823;28;97999;-64
2022/02/12 10:13:20;;;;;;;;;;;;;;;30.61;37.23;102450.72;4944669;28;99209;-57
2022/02/12 10:16:01;;;;;;;;;;;;;;;30.54;37.31;102451.38;4933507;28;115104;-58
2022/02/12 10:18:29;;;;;;;;;;;;;;;30.26;37.63;102445.00;4934713;28;98261;-65
2022/02/12 10:20:55;;;;;;;;;;;;;;;30.14;37.64;102442.25;4928050;28;106409;-58
2022/02/12 10:23:25;;;;;;;;;;;;;;;29.89;37.78;102450.69;4937101;28;116603;-58
2022/02/12 10:26:07;;;;;;;;;;;;;;;28.86;38.55;102442.66;4949550;28;97936;-57
2022/02/12 10:28:35;;;;;;;;;;;;;;;28.06;39.16;102438.25;4938859;28;98241;-64
2022/02/12 10:31:01;;;;;;;;;;;;;;;27.40;39.28;102421.47;4933885;28;98762;-58
2022/02/12 10:33:28;;;;;;;;;;;;;;;27.21;38.99;102424.66;4936629;28;121385;-58
2022/02/12 10:35:59;;;;;;;;;;;;;;;26.62;39.51;102433.66;4932635;28;109354;-58
2022/02/12 10:38:29;;;;;;;;;;;;;;;26.13;39.71;102419.28;4937928;28;98610;-56
2022/02/12 10:41:06;;;;;;;;;;;;;;;26.06;39.57;102421.72;4929264;28;97985;-64
2022/02/12 10:43:32;;;;;;;;;;;;;;;25.29;40.08;102417.72;4929302;28;98352;-57
2022/02/12 10:45:59;;;;;;;;;;;;;;;25.33;39.78;102424.22;4934622;28;120478;-64
2022/02/12 10:48:25;;;;;;;;;;;;;;;26.14;38.36;102409.03;4930515;28;98563;-57
2022/02/12 10:51:02;;;;;;;;;;;;;;;27.71;36.35;102415.56;4934411;28;98035;-58
2022/02/12 10:53:28;;;;;;;;;;;;;;;29.13;34.77;102413.44;4936030;28;98848;-64
2022/02/12 10:55:58;;;;;;;;;;;;;;;30.29;33.92;102422.06;4935720;28;99077;-57
2022/02/12 10:58:24;;;;;;;;;;;;;;;31.18;33.21;102421.56;4935333;28;98048;-64
2022/02/12 11:00:50;;;;;;;;;;;;;;;31.52;32.84;102424.75;4922732;28;111988;-64
2022/02/12 11:03:16;;;;;;;;;;;;;;;31.84;32.92;102419.06;4929950;28;99215;-64
2022/02/12 11:05:42;;;;;;;;;;;;;;;31.88;33.02;102409.63;4934323;28;99256;-64
2022/02/12 11:08:09;;;;;;;;;;;;;;;31.76;33.68;102402.19;4934541;28;97857;-64
2022/02/12 11:10:36;;;;;;;;;;;;;;;31.70;33.89;102400.84;4937640;28;98337;-63
2022/02/12 11:13:03;;;;;;;;;;;;;;;31.52;33.68;102386.56;4933163;28;97715;-64
2022/02/12 11:15:29;;;;;;;;;;;;;;;31.37;34.09;102381.84;4935777;28;121599;-65
2022/02/12 11:17:55;;;;;;;;;;;;;;;31.22;34.15;102382.66;4936430;28;98387;-65
2022/02/12 11:20:21;;;;;;;;;;;;;;;30.94;34.36;102368.91;4918094;28;97934;-64
2022/02/12 11:22:50;;;;;;;;;;;;;;;30.54;34.99;102365.13;4955433;28;98975;-64
2022/02/12 11:25:35;;;;;;;;;;;;;;;30.03;35.19;102362.19;4934307;28;98127;-64
2022/02/12 11:28:05;;;;;;;;;;;;;;;29.50;35.92;102357.84;4940164;28;97994;-64
2022/02/12 11:30:31;;;;;;;;;;;;;;;29.01;36.57;102346.84;4938556;28;98661;-64
2022/02/12 11:32:58;;;;;;;;;;;;;;;28.55;37.03;102338.59;4931096;28;98711;-64
2022/02/12 11:35:24;;;;;;;;;;;;;;;28.16;37.59;102328.94;4933719;28;99725;-57
2022/02/12 11:37:50;;;;;;;;;;;;;;;27.83;37.53;102323.41;4927627;28;98957;-57
2022/02/12 11:40:30;;;;;;;;;;;;;;;27.55;37.67;102320.38;4925297;28;98266;-64
2022/02/12 11:42:59;;;;;;;;;;;;;;;27.24;38.12;102316.06;4933480;28;97812;-57
2022/02/12 11:45:41;;;;;;;;;;;;;;;26.94;38.28;102306.97;4935911;28;98728;-57
2022/02/12 11:48:18;;;;;;;;;;;;;;;26.57;38.66;102298.38;4934224;28;103970;-64
2022/02/12 11:51:04;;;;;;;;;;;;;;;26.19;38.78;102282.56;4926094;28;98475;-64
2022/02/12 11:53:35;;;;;;;;;;;;;;;25.77;39.33;102280.69;4929496;28;98957;-65
2022/02/12 11:56:09;;;;;;;;;;;;;;;25.41;39.38;102279.09;4932459;28;99285;-56
2022/02/12 11:58:41;;;;;;;;;;;;;;;25.08;39.92;102267.69;4933363;28;98569;-63
2022/02/12 12:01:28;;;;;;;;;;;;;;;24.79;40.00;102265.53;4939884;28;97935;-64
2022/02/12 12:04:11;;;;;;;;;;;;;;;24.46;40.11;102263.16;4933850;28;99095;-57
2022/02/12 12:06:38;;;;;;;;;;;;;;;24.16;40.66;102249.06;4930160;28;98721;-63
2022/02/12 12:09:05;;;;;;;;;;;;;;;23.92;40.73;102248.59;4943094;28;117461;-57
2022/02/12 12:11:31;;;;;;;;;;;;;;;23.67;40.98;102241.81;4940222;28;98079;-63
2022/02/12 12:13:59;;;;;;;;;;;;;;;23.43;41.07;102239.38;4938688;28;114793;-57
2022/02/12 12:16:33;;;;;;;;;;;;;;;23.19;41.25;102245.97;4939973;28;99130;-64
2022/02/12 12:19:00;;;;;;;;;;;;;;;22.94;41.36;102241.84;4936206;28;99290;-57
2022/02/12 12:21:28;;;;;;;;;;;;;;;22.73;41.53;102241.44;4939455;28;114783;-64
2022/02/12 12:23:56;;;;;;;;;;;;;;;22.51;41.81;102239.41;4941199;28;98483;-56
2022/02/12 12:26:38;;;;;;;;;;;;;;;22.30;41.76;102230.75;4931844;28;98125;-63
2022/02/12 12:32:00;;;;;;;;;;;;;;;21.88;42.13;102222.75;4916922;28;98565;-64
2022/02/12 12:34:26;;;;;;;;;;;;;;;21.68;42.31;102213.75;4934447;28;120575;-64
2022/02/12 12:36:53;;;;;;;;;;;;;;;21.48;42.32;102212.16;4936371;28;128121;-56
2022/02/12 12:39:19;;;;;;;;;;;;;;;21.33;42.43;102212.41;4944401;28;115194;-64
2022/02/12 12:41:45;;;;;;;;;;;;;;;21.17;42.29;102202.75;4937027;28;98171;-56